sensor_id;sensor_type;location;lat;lon;timestamp;temperature;humidity
23715;DHT22;12036;50.858;4.472;2022-12-24T00:01:46;11.30;99.90
23715;DHT22;12036;50.858;4.472;2022-12-24T00:04:12;11.20;99.90
23715;DHT22;12036;50.858;4.472;2022-12-24T00:06:38;11.20;99.90
23715;DHT22;12036;50.858;4.472;2022-12-24T00:09:03;11.10;99.90
23715;DHT22;12036;50.858;4.472;2022-12-24T00:11:29;11.10;99.90
23715;DHT22;12036;50.858;4.472;2022-12-24T00:13:55;11.10;99.90
23715;DHT22;12036;50.858;4.472;2022-12-24T00:16:20;11.20;99.90
23715;DHT22;12036;50.858;4.472;2022-12-24T00:18:46;11.10;99.90
23715;DHT22;12036;50.858;4.472;2022-12-24T00:21:13;11.00;99.90
23715;DHT22;12036;50.858;4.472;2022-12-24T00:23:39;10.90;99.90
23715;DHT22;12036;50.858;4.472;2022-12-24T00:26:05;10.90;99.90
23715;DHT22;12036;50.858;4.472;2022-12-24T00:28:31;10.90;99.90
23715;DHT22;12036;50.858;4.472;2022-12-24T00:30:57;10.80;99.90
23715;DHT22;12036;50.858;4.472;2022-12-24T00:33:22;10.90;99.90
23715;DHT22;12036;50.858;4.472;2022-12-24T00:35:50;10.70;99.90
23715;DHT22;12036;50.858;4.472;2022-12-24T00:38:16;10.90;99.90
23715;DHT22;12036;50.858;4.472;2022-12-24T00:40:41;10.90;99.90
23715;DHT22;12036;50.858;4.472;2022-12-24T00:43:07;10.80;99.90
23715;DHT22;12036;50.858;4.472;2022-12-24T00:45:32;10.80;99.90
23715;DHT22;12036;50.858;4.472;2022-12-24T00:47:58;10.80;99.90
23715;DHT22;12036;50.858;4.472;2022-12-24T00:50:24;10.70;99.90
23715;DHT22;12036;50.858;4.472;2022-12-24T00:52:49;10.80;99.90
23715;DHT22;12036;50.858;4.472;2022-12-24T00:55:15;10.60;99.90
23715;DHT22;12036;50.858;4.472;2022-12-24T00:57:41;10.60;99.90
23715;DHT22;12036;50.858;4.472;2022-12-24T01:00:07;10.50;99.90
23715;DHT22;12036;50.858;4.472;2022-12-24T01:02:33;10.50;99.90
23715;DHT22;12036;50.858;4.472;2022-12-24T01:04:59;10.50;99.90
23715;DHT22;12036;50.858;4.472;2022-12-24T01:07:39;10.60;99.90
23715;DHT22;12036;50.858;4.472;2022-12-24T01:10:06;10.70;99.90
23715;DHT22;12036;50.858;4.472;2022-12-24T01:12:32;10.60;99.90
23715;DHT22;12036;50.858;4.472;2022-12-24T01:14:58;10.70;99.90
23715;DHT22;12036;50.858;4.472;2022-12-24T01:17:24;10.70;99.90
23715;DHT22;12036;50.858;4.472;2022-12-24T01:19:49;10.70;99.90
23715;DHT22;12036;50.858;4.472;2022-12-24T01:22:15;10.60;99.90
23715;DHT22;12036;50.858;4.472;2022-12-24T01:24:41;10.60;99.90
23715;DHT22;12036;50.858;4.472;2022-12-24T01:27:07;10.60;99.90
23715;DHT22;12036;50.858;4.472;2022-12-24T01:29:33;10.60;99.90
23715;DHT22;12036;50.858;4.472;2022-12-24T01:31:59;10.60;99.90
23715;DHT22;12036;50.858;4.472;2022-12-24T01:34:24;10.70;99.90
23715;DHT22;12036;50.858;4.472;2022-12-24T01:36:50;10.70;99.90
23715;DHT22;12036;50.858;4.472;2022-12-24T01:39:15;10.60;99.90
23715;DHT22;12036;50.858;4.472;2022-12-24T01:41:41;10.50;99.90
23715;DHT22;12036;50.858;4.472;2022-12-24T01:47:34;10.50;99.90
23715;DHT22;12036;50.858;4.472;2022-12-24T01:50:03;10.50;99.90
23715;DHT22;12036;50.858;4.472;2022-12-24T01:52:38;10.40;99.90
23715;DHT22;12036;50.858;4.472;2022-12-24T01:55:06;10.50;99.90
23715;DHT22;12036;50.858;4.472;2022-12-24T01:57:37;10.50;99.90
23715;DHT22;12036;50.858;4.472;2022-12-24T02:00:07;10.50;99.90
23715;DHT22;12036;50.858;4.472;2022-12-24T02:02:33;10.40;99.90
23715;DHT22;12036;50.858;4.472;2022-12-24T02:07:40;10.50;99.90
23715;DHT22;12036;50.858;4.472;2022-12-24T02:10:08;10.50;99.90
23715;DHT22;12036;50.858;4.472;2022-12-24T02:12:35;10.50;99.90
23715;DHT22;12036;50.858;4.472;2022-12-24T02:15:03;10.40;99.90
23715;DHT22;12036;50.858;4.472;2022-12-24T02:17:42;10.50;99.90
23715;DHT22;12036;50.858;4.472;2022-12-24T02:26:01;10.40;99.90
23715;DHT22;12036;50.858;4.472;2022-12-24T02:34:35;10.50;99.90
23715;DHT22;12036;50.858;4.472;2022-12-24T02:37:12;10.40;99.90
23715;DHT22;12036;50.858;4.472;2022-12-24T02:42:11;10.40;99.90
23715;DHT22;12036;50.858;4.472;2022-12-24T02:44:47;10.50;99.90
23715;DHT22;12036;50.858;4.472;2022-12-24T02:47:16;10.50;99.90
23715;DHT22;12036;50.858;4.472;2022-12-24T02:49:44;10.60;99.90
23715;DHT22;12036;50.858;4.472;2022-12-24T02:52:36;10.60;99.90
23715;DHT22;12036;50.858;4.472;2022-12-24T02:55:09;10.70;99.90
23715;DHT22;12036;50.858;4.472;2022-12-24T03:00:23;10.80;99.90
23715;DHT22;12036;50.858;4.472;2022-12-24T03:13:16;10.60;99.90
23715;DHT22;12036;50.858;4.472;2022-12-24T03:15:44;10.70;99.90
23715;DHT22;12036;50.858;4.472;2022-12-24T03:18:11;10.60;99.90
23715;DHT22;12036;50.858;4.472;2022-12-24T03:20:44;10.60;99.90
23715;DHT22;12036;50.858;4.472;2022-12-24T03:23:10;10.60;99.90
23715;DHT22;12036;50.858;4.472;2022-12-24T03:25:40;10.60;99.90
23715;DHT22;12036;50.858;4.472;2022-12-24T03:28:07;10.50;99.90
23715;DHT22;12036;50.858;4.472;2022-12-24T03:30:34;10.50;99.90
23715;DHT22;12036;50.858;4.472;2022-12-24T03:33:00;10.50;99.90
23715;DHT22;12036;50.858;4.472;2022-12-24T03:35:26;10.40;99.90
23715;DHT22;12036;50.858;4.472;2022-12-24T03:37:52;10.50;99.90
23715;DHT22;12036;50.858;4.472;2022-12-24T03:40:17;10.40;99.90
23715;DHT22;12036;50.858;4.472;2022-12-24T03:42:43;10.40;99.90
23715;DHT22;12036;50.858;4.472;2022-12-24T03:45:09;10.50;99.90
23715;DHT22;12036;50.858;4.472;2022-12-24T03:47:35;10.40;99.90
23715;DHT22;12036;50.858;4.472;2022-12-24T03:50:00;10.40;99.90
23715;DHT22;12036;50.858;4.472;2022-12-24T03:52:26;10.40;99.90
23715;DHT22;12036;50.858;4.472;2022-12-24T03:54:52;10.50;99.90
23715;DHT22;12036;50.858;4.472;2022-12-24T03:57:18;10.50;99.90
23715;DHT22;12036;50.858;4.472;2022-12-24T03:59:44;10.50;99.90
23715;DHT22;12036;50.858;4.472;2022-12-24T04:02:09;10.50;99.90
23715;DHT22;12036;50.858;4.472;2022-12-24T04:04:35;10.50;99.90
23715;DHT22;12036;50.858;4.472;2022-12-24T04:07:02;10.50;99.90
23715;DHT22;12036;50.858;4.472;2022-12-24T04:09:28;10.50;99.90
23715;DHT22;12036;50.858;4.472;2022-12-24T04:11:54;10.50;99.90
23715;DHT22;12036;50.858;4.472;2022-12-24T04:14:20;10.50;99.90
23715;DHT22;12036;50.858;4.472;2022-12-24T04:16:45;10.40;99.90
23715;DHT22;12036;50.858;4.472;2022-12-24T04:19:11;10.50;99.90
23715;DHT22;12036;50.858;4.472;2022-12-24T04:21:37;10.50;99.90
23715;DHT22;12036;50.858;4.472;2022-12-24T04:24:02;10.50;99.90
23715;DHT22;12036;50.858;4.472;2022-12-24T04:26:28;10.60;99.90
23715;DHT22;12036;50.858;4.472;2022-12-24T04:28:54;10.60;99.90
23715;DHT22;12036;50.858;4.472;2022-12-24T04:31:19;10.60;99.90
23715;DHT22;12036;50.858;4.472;2022-12-24T04:33:45;10.60;99.90
23715;DHT22;12036;50.858;4.472;2022-12-24T04:36:13;10.70;99.90
23715;DHT22;12036;50.858;4.472;2022-12-24T04:38:42;10.60;99.90
23715;DHT22;12036;50.858;4.472;2022-12-24T04:41:14;10.60;99.90
23715;DHT22;12036;50.858;4.472;2022-12-24T04:43:40;10.70;99.90
23715;DHT22;12036;50.858;4.472;2022-12-24T04:46:11;10.70;99.90
23715;DHT22;12036;50.858;4.472;2022-12-24T04:48:39;10.60;99.90
23715;DHT22;12036;50.858;4.472;2022-12-24T04:51:06;10.70;99.90
23715;DHT22;12036;50.858;4.472;2022-12-24T04:53:33;10.70;99.90
23715;DHT22;12036;50.858;4.472;2022-12-24T04:55:59;10.60;99.90
23715;DHT22;12036;50.858;4.472;2022-12-24T04:58:26;10.40;99.90
23715;DHT22;12036;50.858;4.472;2022-12-24T05:00:52;10.50;99.90
23715;DHT22;12036;50.858;4.472;2022-12-24T05:03:18;10.50;99.90
23715;DHT22;12036;50.858;4.472;2022-12-24T05:05:44;10.60;99.90
23715;DHT22;12036;50.858;4.472;2022-12-24T05:08:10;10.70;99.90
23715;DHT22;12036;50.858;4.472;2022-12-24T05:10:36;10.60;99.90
23715;DHT22;12036;50.858;4.472;2022-12-24T05:13:01;10.60;99.90
23715;DHT22;12036;50.858;4.472;2022-12-24T05:15:27;10.60;99.90
23715;DHT22;12036;50.858;4.472;2022-12-24T05:17:53;10.50;99.90
23715;DHT22;12036;50.858;4.472;2022-12-24T05:20:19;10.40;99.90
23715;DHT22;12036;50.858;4.472;2022-12-24T05:22:44;10.40;99.90
23715;DHT22;12036;50.858;4.472;2022-12-24T05:25:37;10.40;99.90
23715;DHT22;12036;50.858;4.472;2022-12-24T05:28:21;10.30;99.90
23715;DHT22;12036;50.858;4.472;2022-12-24T05:30:47;10.40;99.90
23715;DHT22;12036;50.858;4.472;2022-12-24T05:33:13;10.30;99.90
23715;DHT22;12036;50.858;4.472;2022-12-24T05:35:38;10.30;99.90
23715;DHT22;12036;50.858;4.472;2022-12-24T05:38:04;10.30;99.90
23715;DHT22;12036;50.858;4.472;2022-12-24T05:40:30;10.40;99.90
23715;DHT22;12036;50.858;4.472;2022-12-24T05:42:55;10.40;99.90
23715;DHT22;12036;50.858;4.472;2022-12-24T05:45:21;10.30;99.90
23715;DHT22;12036;50.858;4.472;2022-12-24T05:47:47;10.40;99.90
23715;DHT22;12036;50.858;4.472;2022-12-24T05:50:12;10.30;99.90
23715;DHT22;12036;50.858;4.472;2022-12-24T05:52:38;10.40;99.90
23715;DHT22;12036;50.858;4.472;2022-12-24T05:55:04;10.40;99.90
23715;DHT22;12036;50.858;4.472;2022-12-24T05:57:30;10.30;99.90
23715;DHT22;12036;50.858;4.472;2022-12-24T05:59:55;10.40;99.90
23715;DHT22;12036;50.858;4.472;2022-12-24T06:02:21;10.40;99.90
23715;DHT22;12036;50.858;4.472;2022-12-24T06:04:46;10.40;99.90
23715;DHT22;12036;50.858;4.472;2022-12-24T06:07:12;10.50;99.90
23715;DHT22;12036;50.858;4.472;2022-12-24T06:09:38;10.60;99.90
23715;DHT22;12036;50.858;4.472;2022-12-24T06:12:03;10.60;99.90
23715;DHT22;12036;50.858;4.472;2022-12-24T06:14:29;10.60;99.90
23715;DHT22;12036;50.858;4.472;2022-12-24T06:16:55;10.60;99.90
23715;DHT22;12036;50.858;4.472;2022-12-24T06:19:20;10.60;99.90
23715;DHT22;12036;50.858;4.472;2022-12-24T06:21:46;10.60;99.90
23715;DHT22;12036;50.858;4.472;2022-12-24T06:24:12;10.60;99.90
23715;DHT22;12036;50.858;4.472;2022-12-24T06:26:37;10.50;99.90
23715;DHT22;12036;50.858;4.472;2022-12-24T06:29:03;10.40;99.90
23715;DHT22;12036;50.858;4.472;2022-12-24T06:31:29;10.50;99.90
23715;DHT22;12036;50.858;4.472;2022-12-24T06:33:54;10.50;99.90
23715;DHT22;12036;50.858;4.472;2022-12-24T06:36:22;10.50;99.90
23715;DHT22;12036;50.858;4.472;2022-12-24T06:38:48;10.40;99.90
23715;DHT22;12036;50.858;4.472;2022-12-24T06:41:15;10.30;99.90
23715;DHT22;12036;50.858;4.472;2022-12-24T06:43:45;10.30;99.90
23715;DHT22;12036;50.858;4.472;2022-12-24T06:46:12;10.30;99.90
23715;DHT22;12036;50.858;4.472;2022-12-24T06:48:38;10.20;99.90
23715;DHT22;12036;50.858;4.472;2022-12-24T06:51:04;10.20;99.90
23715;DHT22;12036;50.858;4.472;2022-12-24T06:53:30;10.10;99.90
23715;DHT22;12036;50.858;4.472;2022-12-24T06:56:04;10.10;99.90
23715;DHT22;12036;50.858;4.472;2022-12-24T06:58:30;10.20;99.90
23715;DHT22;12036;50.858;4.472;2022-12-24T07:00:55;10.10;99.90
23715;DHT22;12036;50.858;4.472;2022-12-24T07:03:22;10.10;99.90
23715;DHT22;12036;50.858;4.472;2022-12-24T07:05:48;10.10;99.90
23715;DHT22;12036;50.858;4.472;2022-12-24T07:08:13;10.10;99.90
23715;DHT22;12036;50.858;4.472;2022-12-24T07:10:39;10.10;99.90
23715;DHT22;12036;50.858;4.472;2022-12-24T07:13:05;10.20;99.90
23715;DHT22;12036;50.858;4.472;2022-12-24T07:15:30;10.20;99.90
23715;DHT22;12036;50.858;4.472;2022-12-24T07:17:56;10.10;99.90
23715;DHT22;12036;50.858;4.472;2022-12-24T07:20:21;10.20;99.90
23715;DHT22;12036;50.858;4.472;2022-12-24T07:22:47;10.20;99.90
23715;DHT22;12036;50.858;4.472;2022-12-24T07:25:13;10.20;99.90
23715;DHT22;12036;50.858;4.472;2022-12-24T07:27:39;10.30;99.90
23715;DHT22;12036;50.858;4.472;2022-12-24T07:30:06;10.30;99.90
23715;DHT22;12036;50.858;4.472;2022-12-24T07:32:32;10.30;99.90
23715;DHT22;12036;50.858;4.472;2022-12-24T07:34:57;10.30;99.90
23715;DHT22;12036;50.858;4.472;2022-12-24T07:37:23;10.40;99.90
23715;DHT22;12036;50.858;4.472;2022-12-24T07:39:49;10.30;99.90
23715;DHT22;12036;50.858;4.472;2022-12-24T07:42:14;10.30;99.90
23715;DHT22;12036;50.858;4.472;2022-12-24T07:44:40;10.30;99.90
23715;DHT22;12036;50.858;4.472;2022-12-24T07:47:06;10.20;99.90
23715;DHT22;12036;50.858;4.472;2022-12-24T07:49:31;10.20;99.90
23715;DHT22;12036;50.858;4.472;2022-12-24T07:51:57;10.30;99.90
23715;DHT22;12036;50.858;4.472;2022-12-24T07:54:23;10.30;99.90
23715;DHT22;12036;50.858;4.472;2022-12-24T07:56:48;10.30;99.90
23715;DHT22;12036;50.858;4.472;2022-12-24T07:59:14;10.30;99.90
23715;DHT22;12036;50.858;4.472;2022-12-24T08:01:40;10.30;99.90
23715;DHT22;12036;50.858;4.472;2022-12-24T08:04:06;10.30;99.90
23715;DHT22;12036;50.858;4.472;2022-12-24T08:06:31;10.30;99.90
23715;DHT22;12036;50.858;4.472;2022-12-24T08:08:57;10.30;99.90
23715;DHT22;12036;50.858;4.472;2022-12-24T08:11:23;10.30;99.90
23715;DHT22;12036;50.858;4.472;2022-12-24T08:13:48;10.20;99.90
23715;DHT22;12036;50.858;4.472;2022-12-24T08:16:14;10.30;99.90
23715;DHT22;12036;50.858;4.472;2022-12-24T08:18:40;10.30;99.90
23715;DHT22;12036;50.858;4.472;2022-12-24T08:21:06;10.30;99.90
23715;DHT22;12036;50.858;4.472;2022-12-24T08:23:33;10.30;99.90
23715;DHT22;12036;50.858;4.472;2022-12-24T08:25:58;10.40;99.90
23715;DHT22;12036;50.858;4.472;2022-12-24T08:28:24;10.40;99.90
23715;DHT22;12036;50.858;4.472;2022-12-24T08:30:50;10.50;99.90
23715;DHT22;12036;50.858;4.472;2022-12-24T08:33:16;10.50;99.90
23715;DHT22;12036;50.858;4.472;2022-12-24T08:35:49;10.50;99.90
23715;DHT22;12036;50.858;4.472;2022-12-24T08:38:15;10.50;99.90
23715;DHT22;12036;50.858;4.472;2022-12-24T08:40:41;10.60;99.90
23715;DHT22;12036;50.858;4.472;2022-12-24T08:43:07;10.70;99.90
23715;DHT22;12036;50.858;4.472;2022-12-24T08:45:32;10.70;99.90
23715;DHT22;12036;50.858;4.472;2022-12-24T08:47:58;10.70;99.90
23715;DHT22;12036;50.858;4.472;2022-12-24T08:50:25;10.70;99.90
23715;DHT22;12036;50.858;4.472;2022-12-24T08:52:50;10.70;99.90
23715;DHT22;12036;50.858;4.472;2022-12-24T08:55:16;10.60;99.90
23715;DHT22;12036;50.858;4.472;2022-12-24T08:57:42;10.70;99.90
23715;DHT22;12036;50.858;4.472;2022-12-24T09:00:08;10.80;99.90
23715;DHT22;12036;50.858;4.472;2022-12-24T09:02:34;10.60;99.90
23715;DHT22;12036;50.858;4.472;2022-12-24T09:05:00;10.70;99.90
23715;DHT22;12036;50.858;4.472;2022-12-24T09:07:26;10.80;99.90
23715;DHT22;12036;50.858;4.472;2022-12-24T09:09:52;10.90;99.90
23715;DHT22;12036;50.858;4.472;2022-12-24T09:12:17;11.00;99.90
23715;DHT22;12036;50.858;4.472;2022-12-24T09:14:43;11.10;99.90
23715;DHT22;12036;50.858;4.472;2022-12-24T09:17:08;11.20;99.90
23715;DHT22;12036;50.858;4.472;2022-12-24T09:19:34;11.00;99.90
23715;DHT22;12036;50.858;4.472;2022-12-24T09:22:00;11.10;99.90
23715;DHT22;12036;50.858;4.472;2022-12-24T09:24:25;11.00;99.90
23715;DHT22;12036;50.858;4.472;2022-12-24T09:26:51;11.10;99.90
23715;DHT22;12036;50.858;4.472;2022-12-24T09:29:17;11.10;99.90
23715;DHT22;12036;50.858;4.472;2022-12-24T09:31:43;11.20;99.90
23715;DHT22;12036;50.858;4.472;2022-12-24T09:34:08;11.20;99.90
23715;DHT22;12036;50.858;4.472;2022-12-24T09:36:34;11.30;99.90
23715;DHT22;12036;50.858;4.472;2022-12-24T09:39:00;11.10;99.90
23715;DHT22;12036;50.858;4.472;2022-12-24T09:47:00;11.30;99.90
23715;DHT22;12036;50.858;4.472;2022-12-24T09:49:42;11.50;99.90
23715;DHT22;12036;50.858;4.472;2022-12-24T09:52:13;11.60;99.90
23715;DHT22;12036;50.858;4.472;2022-12-24T09:54:43;11.50;99.90
23715;DHT22;12036;50.858;4.472;2022-12-24T09:57:19;11.30;99.90
23715;DHT22;12036;50.858;4.472;2022-12-24T09:59:48;11.30;99.90
23715;DHT22;12036;50.858;4.472;2022-12-24T10:02:16;11.30;99.90
23715;DHT22;12036;50.858;4.472;2022-12-24T10:04:43;11.40;99.90
23715;DHT22;12036;50.858;4.472;2022-12-24T10:13:34;11.40;99.90
23715;DHT22;12036;50.858;4.472;2022-12-24T10:21:49;11.50;99.90
23715;DHT22;12036;50.858;4.472;2022-12-24T10:24:24;11.60;99.90
23715;DHT22;12036;50.858;4.472;2022-12-24T10:27:03;11.60;99.90
23715;DHT22;12036;50.858;4.472;2022-12-24T10:29:41;11.60;99.90
23715;DHT22;12036;50.858;4.472;2022-12-24T10:34:40;11.40;99.90
23715;DHT22;12036;50.858;4.472;2022-12-24T10:37:15;11.60;99.90
23715;DHT22;12036;50.858;4.472;2022-12-24T10:39:41;11.80;99.90
23715;DHT22;12036;50.858;4.472;2022-12-24T10:42:08;11.60;99.90
23715;DHT22;12036;50.858;4.472;2022-12-24T10:44:35;11.80;99.90
23715;DHT22;12036;50.858;4.472;2022-12-24T10:47:02;11.70;99.90
23715;DHT22;12036;50.858;4.472;2022-12-24T10:54:36;11.80;99.90
23715;DHT22;12036;50.858;4.472;2022-12-24T10:57:25;11.90;99.90
23715;DHT22;12036;50.858;4.472;2022-12-24T10:59:53;11.80;99.90
23715;DHT22;12036;50.858;4.472;2022-12-24T11:04:54;12.00;99.90
23715;DHT22;12036;50.858;4.472;2022-12-24T11:07:21;12.00;99.90
23715;DHT22;12036;50.858;4.472;2022-12-24T11:12:23;12.00;99.90
23715;DHT22;12036;50.858;4.472;2022-12-24T11:15:03;12.10;99.90
23715;DHT22;12036;50.858;4.472;2022-12-24T11:17:29;12.10;99.90
23715;DHT22;12036;50.858;4.472;2022-12-24T11:19:55;12.10;99.90
23715;DHT22;12036;50.858;4.472;2022-12-24T11:22:29;12.10;99.90
23715;DHT22;12036;50.858;4.472;2022-12-24T11:25:18;12.10;99.90
23715;DHT22;12036;50.858;4.472;2022-12-24T11:27:48;12.10;99.90
23715;DHT22;12036;50.858;4.472;2022-12-24T11:35:28;12.20;99.90
23715;DHT22;12036;50.858;4.472;2022-12-24T11:40:37;12.10;99.90
23715;DHT22;12036;50.858;4.472;2022-12-24T11:43:04;12.10;99.90
23715;DHT22;12036;50.858;4.472;2022-12-24T11:45:31;12.10;99.90
23715;DHT22;12036;50.858;4.472;2022-12-24T11:47:59;12.30;99.90
23715;DHT22;12036;50.858;4.472;2022-12-24T11:50:33;12.50;99.90
23715;DHT22;12036;50.858;4.472;2022-12-24T11:55:52;12.70;99.90
23715;DHT22;12036;50.858;4.472;2022-12-24T12:03:47;12.90;99.90
23715;DHT22;12036;50.858;4.472;2022-12-24T12:09:37;13.00;99.90
23715;DHT22;12036;50.858;4.472;2022-12-24T12:12:08;12.90;99.90
23715;DHT22;12036;50.858;4.472;2022-12-24T12:14:41;12.70;99.90
23715;DHT22;12036;50.858;4.472;2022-12-24T12:17:33;12.80;99.90
23715;DHT22;12036;50.858;4.472;2022-12-24T12:20:25;12.90;99.90
23715;DHT22;12036;50.858;4.472;2022-12-24T12:22:57;12.80;99.90
23715;DHT22;12036;50.858;4.472;2022-12-24T12:25:36;12.90;99.90
23715;DHT22;12036;50.858;4.472;2022-12-24T12:28:07;12.80;99.90
23715;DHT22;12036;50.858;4.472;2022-12-24T12:30:38;12.80;99.90
23715;DHT22;12036;50.858;4.472;2022-12-24T12:33:24;12.80;99.90
23715;DHT22;12036;50.858;4.472;2022-12-24T12:35:50;13.00;99.90
23715;DHT22;12036;50.858;4.472;2022-12-24T12:38:23;13.10;99.90
23715;DHT22;12036;50.858;4.472;2022-12-24T12:41:11;13.10;99.90
23715;DHT22;12036;50.858;4.472;2022-12-24T12:44:01;13.10;99.90
23715;DHT22;12036;50.858;4.472;2022-12-24T12:46:51;13.10;99.90
23715;DHT22;12036;50.858;4.472;2022-12-24T12:51:53;12.80;99.90
23715;DHT22;12036;50.858;4.472;2022-12-24T12:54:35;13.00;99.90
23715;DHT22;12036;50.858;4.472;2022-12-24T12:57:06;12.90;99.90
23715;DHT22;12036;50.858;4.472;2022-12-24T13:08:03;12.30;99.90
23715;DHT22;12036;50.858;4.472;2022-12-24T13:21:28;12.80;99.90
23715;DHT22;12036;50.858;4.472;2022-12-24T13:24:25;12.90;99.90
23715;DHT22;12036;50.858;4.472;2022-12-24T13:27:03;12.90;99.90
23715;DHT22;12036;50.858;4.472;2022-12-24T13:32:52;12.90;99.90
23715;DHT22;12036;50.858;4.472;2022-12-24T13:37:45;13.00;99.90
23715;DHT22;12036;50.858;4.472;2022-12-24T13:50:53;13.10;99.90
23715;DHT22;12036;50.858;4.472;2022-12-24T13:56:08;13.20;99.90
23715;DHT22;12036;50.858;4.472;2022-12-24T13:58:38;13.10;99.90
23715;DHT22;12036;50.858;4.472;2022-12-24T14:01:09;12.90;99.90
23715;DHT22;12036;50.858;4.472;2022-12-24T14:03:57;13.00;99.90
23715;DHT22;12036;50.858;4.472;2022-12-24T14:08:55;12.90;99.90
23715;DHT22;12036;50.858;4.472;2022-12-24T14:11:25;13.00;99.90
23715;DHT22;12036;50.858;4.472;2022-12-24T14:13:54;12.80;99.90
23715;DHT22;12036;50.858;4.472;2022-12-24T14:16:42;12.70;99.90
23715;DHT22;12036;50.858;4.472;2022-12-24T14:19:42;12.70;99.90
23715;DHT22;12036;50.858;4.472;2022-12-24T14:25:01;12.80;99.90
23715;DHT22;12036;50.858;4.472;2022-12-24T14:27:36;12.80;99.90
23715;DHT22;12036;50.858;4.472;2022-12-24T14:32:48;12.40;99.90
23715;DHT22;12036;50.858;4.472;2022-12-24T14:35:16;12.40;99.90
23715;DHT22;12036;50.858;4.472;2022-12-24T14:40:37;12.30;99.90
23715;DHT22;12036;50.858;4.472;2022-12-24T14:48:34;12.00;99.90
23715;DHT22;12036;50.858;4.472;2022-12-24T14:51:13;11.90;99.90
23715;DHT22;12036;50.858;4.472;2022-12-24T14:56:32;11.90;99.90
23715;DHT22;12036;50.858;4.472;2022-12-24T14:58:57;11.80;99.90
23715;DHT22;12036;50.858;4.472;2022-12-24T15:01:30;11.80;99.90
23715;DHT22;12036;50.858;4.472;2022-12-24T15:06:40;11.70;99.90
23715;DHT22;12036;50.858;4.472;2022-12-24T15:09:23;11.80;99.90
23715;DHT22;12036;50.858;4.472;2022-12-24T15:11:53;11.70;99.90
23715;DHT22;12036;50.858;4.472;2022-12-24T15:14:20;11.70;99.90
23715;DHT22;12036;50.858;4.472;2022-12-24T15:17:01;11.70;99.90
23715;DHT22;12036;50.858;4.472;2022-12-24T15:19:34;11.60;99.90
23715;DHT22;12036;50.858;4.472;2022-12-24T15:22:03;11.50;99.90
23715;DHT22;12036;50.858;4.472;2022-12-24T15:24:42;11.50;99.90
23715;DHT22;12036;50.858;4.472;2022-12-24T15:27:15;11.40;99.90
23715;DHT22;12036;50.858;4.472;2022-12-24T15:29:46;11.30;99.90
23715;DHT22;12036;50.858;4.472;2022-12-24T15:32:14;11.30;99.90
23715;DHT22;12036;50.858;4.472;2022-12-24T15:34:42;11.20;99.90
23715;DHT22;12036;50.858;4.472;2022-12-24T15:37:23;11.20;99.90
23715;DHT22;12036;50.858;4.472;2022-12-24T15:39:55;11.20;99.90
23715;DHT22;12036;50.858;4.472;2022-12-24T15:42:22;11.20;99.90
23715;DHT22;12036;50.858;4.472;2022-12-24T15:47:42;11.20;99.90
23715;DHT22;12036;50.858;4.472;2022-12-24T15:50:13;11.30;99.90
23715;DHT22;12036;50.858;4.472;2022-12-24T15:52:40;11.30;99.90
23715;DHT22;12036;50.858;4.472;2022-12-24T15:55:24;11.30;99.90
23715;DHT22;12036;50.858;4.472;2022-12-24T15:57:50;11.30;99.90
23715;DHT22;12036;50.858;4.472;2022-12-24T16:00:27;11.30;99.90
23715;DHT22;12036;50.858;4.472;2022-12-24T16:03:16;11.30;99.90
23715;DHT22;12036;50.858;4.472;2022-12-24T16:05:42;11.30;99.90
23715;DHT22;12036;50.858;4.472;2022-12-24T16:10:40;11.20;99.90
23715;DHT22;12036;50.858;4.472;2022-12-24T16:13:20;11.10;99.90
23715;DHT22;12036;50.858;4.472;2022-12-24T16:15:58;11.00;99.90
23715;DHT22;12036;50.858;4.472;2022-12-24T16:18:32;11.00;99.90
23715;DHT22;12036;50.858;4.472;2022-12-24T16:20:59;11.10;99.90
23715;DHT22;12036;50.858;4.472;2022-12-24T16:23:38;11.10;99.90
23715;DHT22;12036;50.858;4.472;2022-12-24T16:26:09;11.10;99.90
23715;DHT22;12036;50.858;4.472;2022-12-24T16:28:34;11.00;99.90
23715;DHT22;12036;50.858;4.472;2022-12-24T16:31:00;11.00;99.90
23715;DHT22;12036;50.858;4.472;2022-12-24T16:33:26;10.90;99.90
23715;DHT22;12036;50.858;4.472;2022-12-24T16:35:53;10.90;99.90
23715;DHT22;12036;50.858;4.472;2022-12-24T16:38:20;10.90;99.90
23715;DHT22;12036;50.858;4.472;2022-12-24T16:40:46;11.00;99.90
23715;DHT22;12036;50.858;4.472;2022-12-24T16:43:12;11.00;99.90
23715;DHT22;12036;50.858;4.472;2022-12-24T16:46:00;11.10;99.90
23715;DHT22;12036;50.858;4.472;2022-12-24T16:48:26;10.90;99.90
23715;DHT22;12036;50.858;4.472;2022-12-24T16:50:52;10.80;99.90
23715;DHT22;12036;50.858;4.472;2022-12-24T16:53:19;10.90;99.90
23715;DHT22;12036;50.858;4.472;2022-12-24T16:55:45;10.80;99.90
23715;DHT22;12036;50.858;4.472;2022-12-24T16:58:13;10.80;99.90
23715;DHT22;12036;50.858;4.472;2022-12-24T17:00:40;10.70;99.90
23715;DHT22;12036;50.858;4.472;2022-12-24T17:03:06;10.60;99.90
23715;DHT22;12036;50.858;4.472;2022-12-24T17:05:36;10.60;99.90
23715;DHT22;12036;50.858;4.472;2022-12-24T17:08:01;10.50;99.90
23715;DHT22;12036;50.858;4.472;2022-12-24T17:10:27;10.50;99.90
23715;DHT22;12036;50.858;4.472;2022-12-24T17:12:53;10.40;99.90
23715;DHT22;12036;50.858;4.472;2022-12-24T17:15:19;10.30;99.90
23715;DHT22;12036;50.858;4.472;2022-12-24T17:17:45;10.20;99.90
23715;DHT22;12036;50.858;4.472;2022-12-24T17:20:11;10.20;99.90
23715;DHT22;12036;50.858;4.472;2022-12-24T17:22:38;10.10;99.90
23715;DHT22;12036;50.858;4.472;2022-12-24T17:25:05;10.00;99.90
23715;DHT22;12036;50.858;4.472;2022-12-24T17:27:31;10.00;99.90
23715;DHT22;12036;50.858;4.472;2022-12-24T17:29:57;10.00;99.90
23715;DHT22;12036;50.858;4.472;2022-12-24T17:32:24;9.90;99.90
23715;DHT22;12036;50.858;4.472;2022-12-24T17:34:50;9.90;99.90
23715;DHT22;12036;50.858;4.472;2022-12-24T17:37:15;9.90;99.90
23715;DHT22;12036;50.858;4.472;2022-12-24T17:39:41;9.80;99.90
23715;DHT22;12036;50.858;4.472;2022-12-24T17:42:06;9.80;99.90
23715;DHT22;12036;50.858;4.472;2022-12-24T17:44:32;9.80;99.90
23715;DHT22;12036;50.858;4.472;2022-12-24T17:46:58;9.80;99.90
23715;DHT22;12036;50.858;4.472;2022-12-24T17:49:24;9.80;99.90
23715;DHT22;12036;50.858;4.472;2022-12-24T17:51:49;9.80;99.90
23715;DHT22;12036;50.858;4.472;2022-12-24T17:54:15;9.80;99.90
23715;DHT22;12036;50.858;4.472;2022-12-24T17:56:41;9.80;99.90
23715;DHT22;12036;50.858;4.472;2022-12-24T17:59:06;9.80;99.90
23715;DHT22;12036;50.858;4.472;2022-12-24T18:01:32;9.80;99.90
23715;DHT22;12036;50.858;4.472;2022-12-24T18:03:59;9.70;99.90
23715;DHT22;12036;50.858;4.472;2022-12-24T18:06:26;9.70;99.90
23715;DHT22;12036;50.858;4.472;2022-12-24T18:08:52;9.70;99.90
23715;DHT22;12036;50.858;4.472;2022-12-24T18:11:30;9.60;99.90
23715;DHT22;12036;50.858;4.472;2022-12-24T18:13:58;9.60;99.90